createdAt,value
2023-04-08T00:00:40.318Z,100168.16
2023-04-08T00:03:22.569Z,100170.97
2023-04-08T00:05:53.644Z,100167.40
2023-04-08T00:08:25.431Z,100163.77
2023-04-08T00:10:57.338Z,100166.71
2023-04-08T00:21:41.537Z,100163.13
2023-04-08T00:24:10.916Z,100156.83
2023-04-08T00:26:39.111Z,100157.35
2023-04-08T00:29:07.217Z,100154.46
2023-04-08T00:31:35.869Z,100152.02
2023-04-08T00:34:04.109Z,100157.70
2023-04-08T00:36:32.758Z,100156.83
2023-04-08T00:39:02.449Z,100154.06
2023-04-08T00:41:31.063Z,100150.84
2023-04-08T00:43:59.200Z,100151.42
2023-04-08T00:46:28.621Z,100149.71
2023-04-08T00:48:56.875Z,100148.14
2023-04-08T00:51:26.271Z,100146.24
2023-04-08T00:53:55.043Z,100143.54
2023-04-08T00:56:23.312Z,100144.09
2023-04-08T00:58:55.211Z,100144.15
2023-04-08T01:01:49.602Z,100142.14
2023-04-08T01:04:39.694Z,100142.05
2023-04-08T01:07:12.032Z,100139.59
2023-04-08T01:09:48.183Z,100139.79
2023-04-08T01:12:21.380Z,100143.27
2023-04-08T01:14:49.687Z,100139.13
2023-04-08T01:17:17.735Z,100138.64
2023-04-08T01:19:46.734Z,100142.36
2023-04-08T01:22:53.941Z,100141.27
2023-04-08T01:25:24.990Z,100144.67
2023-04-08T01:27:56.555Z,100147.00
2023-04-08T01:30:25.250Z,100147.01
2023-04-08T01:32:54.578Z,100149.61
2023-04-08T01:35:23.784Z,100147.20
2023-04-08T01:37:51.858Z,100149.48
2023-04-08T01:40:20.500Z,100147.92
2023-04-08T01:42:49.208Z,100149.27
2023-04-08T01:45:17.531Z,100149.06
2023-04-08T01:47:47.608Z,100152.69
2023-04-08T01:50:16.606Z,100149.68
2023-04-08T01:52:46.724Z,100149.27
2023-04-08T01:55:16.266Z,100144.89
2023-04-08T01:57:48.474Z,100145.05
2023-04-08T02:00:18.880Z,100142.16
2023-04-08T02:02:50.548Z,100144.25
2023-04-08T02:05:21.051Z,100143.96
2023-04-08T02:07:50.850Z,100147.05
2023-04-08T02:10:25.255Z,100149.79
2023-04-08T02:12:54.365Z,100151.67
2023-04-08T02:15:22.925Z,100154.42
2023-04-08T02:18:03.800Z,100150.74
2023-04-08T02:20:40.030Z,100149.75
2023-04-08T02:23:14.853Z,100145.85
2023-04-08T02:25:45.651Z,100147.83
2023-04-08T02:28:13.953Z,100145.40
2023-04-08T02:30:48.561Z,100141.42
2023-04-08T02:33:19.686Z,100137.96
2023-04-08T02:35:48.957Z,100136.70
2023-04-08T02:38:29.835Z,100139.60
2023-04-08T02:40:58.865Z,100144.41
2023-04-08T02:43:31.841Z,100143.36
2023-04-08T02:46:04.366Z,100143.95
2023-04-08T02:48:33.013Z,100142.70
2023-04-08T02:51:01.132Z,100148.52
2023-04-08T02:53:29.628Z,100154.52
2023-04-08T02:55:57.935Z,100154.44
2023-04-08T02:58:25.946Z,100155.02
2023-04-08T03:00:55.619Z,100156.00
2023-04-08T03:03:30.373Z,100152.13
2023-04-08T03:05:59.442Z,100155.55
2023-04-08T03:08:27.666Z,100157.08
2023-04-08T03:10:56.706Z,100153.39
2023-04-08T03:13:25.765Z,100158.23
2023-04-08T03:15:53.903Z,100164.06
2023-04-08T03:18:22.068Z,100160.30
2023-04-08T03:20:50.299Z,100159.58
2023-04-08T03:23:18.436Z,100162.45
2023-04-08T03:25:47.860Z,100160.68
2023-04-08T03:28:15.918Z,100161.44
2023-04-08T03:30:44.564Z,100157.40
2023-04-08T03:33:13.969Z,100157.27
2023-04-08T03:35:42.094Z,100155.98
2023-04-08T03:38:10.098Z,100156.57
2023-04-08T03:40:38.149Z,100159.63
2023-04-08T03:43:08.950Z,100160.20
2023-04-08T03:45:37.109Z,100161.55
2023-04-08T03:48:06.260Z,100167.07
2023-04-08T03:50:34.996Z,100167.80
2023-04-08T03:53:06.063Z,100169.00
2023-04-08T03:55:34.278Z,100169.52
2023-04-08T03:58:08.067Z,100172.61
2023-04-08T04:00:36.273Z,100173.75
2023-04-08T04:03:13.502Z,100173.44
2023-04-08T04:05:42.558Z,100171.43
2023-04-08T04:08:10.779Z,100176.58
2023-04-08T04:10:39.496Z,100174.30
2023-04-08T04:13:08.207Z,100174.92
2023-04-08T04:15:40.336Z,100176.22
2023-04-08T04:18:08.890Z,100176.59
2023-04-08T04:20:41.635Z,100178.00
2023-04-08T04:23:10.780Z,100180.79
2023-04-08T04:25:41.939Z,100185.30
2023-04-08T04:28:17.283Z,100189.92
2023-04-08T04:30:48.391Z,100189.17
2023-04-08T04:33:17.197Z,100192.96
2023-04-08T04:35:47.341Z,100193.05
2023-04-08T04:38:16.266Z,100197.86
2023-04-08T04:40:47.695Z,100198.23
2023-04-08T04:43:17.365Z,100195.79
2023-04-08T04:45:47.432Z,100197.52
2023-04-08T04:48:17.282Z,100200.11
2023-04-08T04:50:45.613Z,100205.08
2023-04-08T04:53:19.213Z,100208.23
2023-04-08T04:55:48.927Z,100214.15
2023-04-08T04:58:17.970Z,100214.50
2023-04-08T05:00:46.794Z,100217.51
2023-04-08T05:03:16.785Z,100217.50
2023-04-08T05:05:53.396Z,100220.66
2023-04-08T05:08:22.264Z,100221.55
2023-04-08T05:10:50.906Z,100226.21
2023-04-08T05:13:25.598Z,100220.79
2023-04-08T05:15:56.154Z,100222.01
2023-04-08T05:18:24.846Z,100218.84
2023-04-08T05:20:57.615Z,100225.67
2023-04-08T05:23:26.809Z,100220.18
2023-04-08T05:25:55.544Z,100222.61
2023-04-08T05:28:28.952Z,100221.33
2023-04-08T05:30:59.063Z,100220.35
2023-04-08T05:33:27.694Z,100225.83
2023-04-08T05:35:59.292Z,100222.50
2023-04-08T05:38:28.120Z,100220.96
2023-04-08T05:40:56.914Z,100217.48
2023-04-08T05:43:25.115Z,100222.20
2023-04-08T05:45:53.924Z,100222.39
2023-04-08T05:48:22.676Z,100222.33
2023-04-08T05:50:57.187Z,100216.04
2023-04-08T05:53:26.477Z,100216.19
2023-04-08T05:55:54.834Z,100219.02
2023-04-08T05:58:25.440Z,100220.06
2023-04-08T06:00:55.706Z,100223.39
2023-04-08T06:03:26.798Z,100225.83
2023-04-08T06:05:56.702Z,100227.34
2023-04-08T06:08:26.154Z,100229.27
2023-04-08T06:10:58.039Z,100226.69
2023-04-08T06:13:28.253Z,100231.96
2023-04-08T06:15:56.825Z,100230.95
2023-04-08T06:18:29.624Z,100229.23
2023-04-08T06:20:59.784Z,100232.84
2023-04-08T06:23:27.880Z,100231.25
2023-04-08T06:25:55.890Z,100235.34
2023-04-08T06:28:25.825Z,100233.55
2023-04-08T06:30:54.471Z,100237.66
2023-04-08T06:33:24.951Z,100242.29
2023-04-08T06:36:01.267Z,100241.09
2023-04-08T06:38:29.913Z,100242.20
2023-04-08T06:41:08.101Z,100243.44
2023-04-08T06:43:37.976Z,100249.10
2023-04-08T06:46:06.444Z,100253.92
2023-04-08T06:48:37.787Z,100255.30
2023-04-08T06:51:08.052Z,100257.27
2023-04-08T06:53:39.642Z,100258.85
2023-04-08T06:56:07.942Z,100257.63
2023-04-08T06:58:40.624Z,100261.74
2023-04-08T07:01:08.727Z,100256.90
2023-04-08T07:03:38.737Z,100258.80
2023-04-08T07:06:06.880Z,100262.95
2023-04-08T07:08:35.239Z,100264.82
2023-04-08T07:11:05.529Z,100264.91
2023-04-08T07:13:34.297Z,100265.55
2023-04-08T07:16:02.573Z,100268.30
2023-04-08T07:18:34.077Z,100274.54
2023-04-08T07:21:03.632Z,100271.13
2023-04-08T07:23:32.664Z,100275.75
2023-04-08T07:26:07.393Z,100277.52
2023-04-08T07:28:35.677Z,100278.20
2023-04-08T07:31:16.213Z,100276.58
2023-04-08T07:33:45.328Z,100279.58
2023-04-08T07:36:15.758Z,100279.91
2023-04-08T07:38:44.104Z,100281.88
2023-04-08T07:41:12.202Z,100282.04
2023-04-08T07:43:40.639Z,100282.63
2023-04-08T07:46:09.297Z,100279.09
2023-04-08T07:48:38.765Z,100281.07
2023-04-08T07:51:11.063Z,100282.02
2023-04-08T07:53:42.680Z,100280.33
2023-04-08T07:56:12.572Z,100277.16
2023-04-08T07:58:41.353Z,100274.52
2023-04-08T08:01:22.499Z,100275.39
2023-04-08T08:03:52.841Z,100275.66
2023-04-08T08:06:29.757Z,100277.25
2023-04-08T08:08:59.782Z,100277.61
2023-04-08T08:11:28.618Z,100271.37
2023-04-08T08:14:01.835Z,100271.67
2023-04-08T08:16:33.768Z,100274.85
2023-04-08T08:19:02.121Z,100275.64
2023-04-08T08:21:36.434Z,100272.04
2023-04-08T08:24:04.552Z,100267.52
2023-04-08T08:26:37.141Z,100270.83
2023-04-08T08:29:06.684Z,100274.96
2023-04-08T08:31:36.097Z,100274.73
2023-04-08T08:34:04.567Z,100270.96
2023-04-08T08:36:35.044Z,100267.44
2023-04-08T08:39:03.372Z,100267.26
2023-04-08T08:41:37.996Z,100269.96
2023-04-08T08:44:07.603Z,100269.38
2023-04-08T08:46:35.938Z,100265.04
2023-04-08T08:49:04.633Z,100257.37
2023-04-08T08:51:34.095Z,100258.63
2023-04-08T08:54:04.375Z,100260.45
2023-04-08T08:56:34.136Z,100260.23
2023-04-08T08:59:03.694Z,100262.64
2023-04-08T09:01:34.460Z,100262.43
2023-04-08T09:04:14.300Z,100261.61
2023-04-08T09:06:43.181Z,100264.71
2023-04-08T09:09:11.633Z,100267.56
2023-04-08T09:11:41.454Z,100266.34
2023-04-08T09:14:23.133Z,100263.51
2023-04-08T09:16:52.062Z,100262.29
2023-04-08T09:19:20.424Z,100258.90
2023-04-08T09:22:10.862Z,100261.63
2023-04-08T09:24:41.235Z,100264.73
2023-04-08T09:27:14.780Z,100266.13
2023-04-08T09:29:43.659Z,100266.96
2023-04-08T09:32:11.612Z,100270.06
2023-04-08T09:34:42.729Z,100269.14
2023-04-08T09:37:12.008Z,100268.79
2023-04-08T09:39:46.811Z,100267.12
2023-04-08T09:42:15.925Z,100266.17
2023-04-08T09:44:43.893Z,100267.81
2023-04-08T09:47:20.158Z,100267.30
2023-04-08T09:49:51.755Z,100270.45
2023-04-08T09:52:44.699Z,100266.71
2023-04-08T09:55:13.550Z,100265.95
2023-04-08T09:57:45.838Z,100274.85
2023-04-08T10:00:19.500Z,100274.80
2023-04-08T10:03:25.185Z,100276.15
2023-04-08T10:06:01.847Z,100274.99
2023-04-08T10:08:31.716Z,100279.18
2023-04-08T10:11:01.424Z,100277.45
2023-04-08T10:13:35.330Z,100279.13
2023-04-08T10:16:25.972Z,100282.02
2023-04-08T10:18:58.111Z,100274.73
2023-04-08T10:21:37.777Z,100277.12
2023-04-08T10:24:10.563Z,100273.91
2023-04-08T10:26:45.484Z,100283.25
2023-04-08T10:29:19.561Z,100280.77
2023-04-08T10:31:48.948Z,100282.11
2023-04-08T10:34:24.920Z,100282.77
2023-04-08T10:36:55.454Z,100279.60
2023-04-08T10:39:27.490Z,100283.25
2023-04-08T10:41:56.617Z,100282.91
2023-04-08T10:44:26.978Z,100283.73
2023-04-08T10:46:56.735Z,100285.30
2023-04-08T10:49:33.955Z,100282.48
2023-04-08T10:52:08.542Z,100279.82
2023-04-08T10:54:38.858Z,100275.95
2023-04-08T10:57:07.121Z,100275.24
2023-04-08T10:59:36.964Z,100272.27
2023-04-08T11:02:15.477Z,100275.98
2023-04-08T11:04:45.251Z,100269.42
2023-04-08T11:07:17.275Z,100266.23
2023-04-08T11:09:47.243Z,100259.73
2023-04-08T11:12:22.814Z,100259.86
2023-04-08T11:14:54.811Z,100257.77
2023-04-08T11:17:23.088Z,100254.42
2023-04-08T11:19:58.026Z,100251.08
2023-04-08T11:22:29.295Z,100247.13
2023-04-08T11:24:58.094Z,100245.95
2023-04-08T11:27:26.273Z,100243.98
2023-04-08T11:29:57.284Z,100246.27
2023-04-08T11:32:25.287Z,100245.40
2023-04-08T11:34:55.056Z,100243.23
2023-04-08T11:37:27.289Z,100242.52
2023-04-08T11:39:58.812Z,100234.42
2023-04-08T11:42:32.941Z,100228.60
2023-04-08T11:45:01.487Z,100219.39
2023-04-08T11:47:34.231Z,100222.34
2023-04-08T11:50:03.017Z,100219.71
2023-04-08T11:52:47.158Z,100213.73
2023-04-08T11:55:32.062Z,100213.55
2023-04-08T11:58:06.255Z,100210.28
2023-04-08T12:00:37.481Z,100205.43
2023-04-08T12:03:07.736Z,100207.75
2023-04-08T12:05:42.809Z,100203.52
2023-04-08T12:08:12.181Z,100198.04
2023-04-08T12:10:40.810Z,100197.95
2023-04-08T12:13:09.064Z,100193.05
2023-04-08T12:15:37.942Z,100194.16
2023-04-08T12:18:06.625Z,100187.48
2023-04-08T12:20:39.944Z,100184.51
2023-04-08T12:23:09.349Z,100186.60
2023-04-08T12:25:37.961Z,100198.55
2023-04-08T12:28:07.407Z,100190.47
2023-04-08T12:30:37.704Z,100210.82
2023-04-08T12:33:07.789Z,100202.83
2023-04-08T12:35:36.264Z,100204.15
2023-04-08T12:38:04.428Z,100206.86
2023-04-08T12:40:33.565Z,100202.04
2023-04-08T12:43:01.950Z,100195.88
2023-04-08T12:45:30.140Z,100194.55
2023-04-08T12:48:00.021Z,100193.73
2023-04-08T12:50:28.477Z,100192.06
2023-04-08T12:52:56.840Z,100187.70
2023-04-08T12:55:27.650Z,100185.58
2023-04-08T12:58:00.932Z,100186.36
2023-04-08T13:00:29.192Z,100184.76
2023-04-08T13:03:00.007Z,100197.69
2023-04-08T13:05:42.084Z,100201.80
2023-04-08T13:08:14.712Z,100222.98
2023-04-08T13:10:43.835Z,100228.65
2023-04-08T13:13:14.346Z,100233.14
2023-04-08T13:15:43.855Z,100228.60
2023-04-08T13:18:13.049Z,100242.23
2023-04-08T13:20:41.644Z,100252.81
2023-04-08T13:23:09.746Z,100262.88
2023-04-08T13:25:38.119Z,100259.61
2023-04-08T13:28:08.767Z,100257.45
2023-04-08T13:30:39.092Z,100254.80
2023-04-08T13:33:07.454Z,100253.28
2023-04-08T13:35:35.666Z,100257.17
2023-04-08T13:38:04.642Z,100260.41
2023-04-08T13:40:33.341Z,100256.52
2023-04-08T13:43:02.371Z,100251.80
2023-04-08T13:45:30.442Z,100252.95
2023-04-08T13:47:59.945Z,100247.11
2023-04-08T13:50:28.373Z,100241.00
2023-04-08T13:52:57.206Z,100237.58
2023-04-08T13:55:26.880Z,100231.93
2023-04-08T13:57:57.189Z,100225.27
2023-04-08T14:00:27.152Z,100221.39
2023-04-08T14:03:06.995Z,100223.55
2023-04-08T14:05:37.479Z,100217.15
2023-04-08T14:08:08.511Z,100215.73
2023-04-08T14:10:42.411Z,100207.25
2023-04-08T14:13:10.957Z,100203.41
2023-04-08T14:15:43.118Z,100199.90
2023-04-08T14:18:13.432Z,100196.56
2023-04-08T14:20:44.345Z,100203.09
2023-04-08T14:23:15.131Z,100210.02
2023-04-08T14:25:43.222Z,100203.27
2023-04-08T14:28:12.530Z,100195.91
2023-04-08T14:30:42.991Z,100196.95
2023-04-08T14:36:58.493Z,100191.66
2023-04-08T14:39:28.488Z,100196.48
2023-04-08T14:42:09.720Z,100195.07
2023-04-08T14:44:38.436Z,100197.69
2023-04-08T14:47:08.147Z,100193.78
2023-04-08T14:49:37.546Z,100192.03
2023-04-08T14:52:08.092Z,100192.42
2023-04-08T14:54:38.347Z,100193.38
2023-04-08T14:57:07.830Z,100194.11
2023-04-08T14:59:37.844Z,100193.70
2023-04-08T15:02:07.652Z,100192.48
2023-04-08T15:04:36.102Z,100199.66
2023-04-08T15:07:05.157Z,100206.94
2023-04-08T15:09:33.858Z,100212.63
2023-04-08T15:12:02.738Z,100219.16
2023-04-08T15:14:31.135Z,100224.00
2023-04-08T15:17:01.129Z,100228.30
2023-04-08T15:19:29.501Z,100230.71
2023-04-08T15:21:59.968Z,100230.71
2023-04-08T15:24:28.000Z,100236.98
2023-04-08T15:26:57.017Z,100236.89
2023-04-08T15:29:26.239Z,100237.39
2023-04-08T15:31:54.550Z,100242.07
2023-04-08T15:34:23.154Z,100242.30
2023-04-08T15:36:51.724Z,100243.48
2023-04-08T15:39:19.705Z,100245.62
2023-04-08T15:41:47.728Z,100247.31
2023-04-08T15:44:16.307Z,100242.42
2023-04-08T15:46:44.408Z,100242.60
2023-04-08T15:49:12.548Z,100243.50
2023-04-08T15:51:44.662Z,100245.09
2023-04-08T15:54:12.967Z,100244.78
2023-04-08T15:56:41.629Z,100243.39
2023-04-08T15:59:14.793Z,100243.32
2023-04-08T16:02:02.713Z,100243.88
2023-04-08T16:04:31.632Z,100248.51
2023-04-08T16:07:00.033Z,100251.58
2023-04-08T16:09:28.312Z,100250.83
2023-04-08T16:12:05.584Z,100250.43
2023-04-08T16:14:34.073Z,100248.13
2023-04-08T16:17:02.446Z,100247.75
2023-04-08T16:19:33.592Z,100250.80
2023-04-08T16:22:03.408Z,100250.81
2023-04-08T16:24:36.550Z,100256.69
2023-04-08T16:27:05.599Z,100249.86
2023-04-08T16:29:33.825Z,100253.73
2023-04-08T16:32:02.261Z,100256.53
2023-04-08T16:34:30.593Z,100256.16
2023-04-08T16:36:58.631Z,100254.78
2023-04-08T16:39:26.829Z,100255.62
2023-04-08T16:41:54.839Z,100259.30
2023-04-08T16:44:26.297Z,100264.17
2023-04-08T16:46:54.768Z,100262.48
2023-04-08T16:49:23.202Z,100263.30
2023-04-08T16:51:51.292Z,100265.27
2023-04-08T16:54:20.311Z,100269.58
2023-04-08T16:56:50.795Z,100268.77
2023-04-08T16:59:18.990Z,100268.45
2023-04-08T17:01:47.580Z,100274.70
2023-04-08T17:04:15.910Z,100276.48
2023-04-08T17:06:44.004Z,100281.98
2023-04-08T17:09:12.316Z,100285.86
2023-04-08T17:11:41.570Z,100290.13
2023-04-08T17:14:10.032Z,100294.86
2023-04-08T17:16:42.489Z,100295.34
2023-04-08T17:19:13.290Z,100300.50
2023-04-08T17:21:42.878Z,100298.72
2023-04-08T17:24:28.471Z,100302.77
2023-04-08T17:26:57.861Z,100306.67
2023-04-08T17:29:27.162Z,100315.18
2023-04-08T17:31:55.587Z,100314.17
2023-04-08T17:34:24.862Z,100318.13
2023-04-08T17:36:54.727Z,100318.33
2023-04-08T17:39:23.564Z,100324.28
2023-04-08T17:41:51.593Z,100326.34
2023-04-08T17:44:21.301Z,100331.43
2023-04-08T17:46:49.346Z,100331.63
2023-04-08T17:49:18.998Z,100333.14
2023-04-08T17:51:47.304Z,100333.92
2023-04-08T17:54:17.354Z,100332.56
2023-04-08T17:56:49.033Z,100343.81
2023-04-08T17:59:18.020Z,100341.78
2023-04-08T18:01:46.929Z,100348.55
2023-04-08T18:04:16.464Z,100349.52
2023-04-08T18:06:44.592Z,100348.02
2023-04-08T18:09:12.856Z,100349.37
2023-04-08T18:11:40.920Z,100352.73
2023-04-08T18:14:09.444Z,100355.24
2023-04-08T18:16:44.455Z,100353.92
2023-04-08T18:19:15.945Z,100353.65
2023-04-08T18:21:44.222Z,100352.98
2023-04-08T18:24:13.358Z,100350.78
2023-04-08T18:26:42.758Z,100352.33
2023-04-08T18:29:12.166Z,100352.52
2023-04-08T18:31:40.873Z,100352.86
2023-04-08T18:34:11.210Z,100354.34
2023-04-08T18:36:40.042Z,100356.20
2023-04-08T18:39:12.762Z,100351.96
2023-04-08T18:41:42.861Z,100351.41
2023-04-08T18:44:12.514Z,100352.58
2023-04-08T18:46:41.788Z,100349.33
2023-04-08T18:49:12.336Z,100352.14
2023-04-08T18:51:44.123Z,100352.61
2023-04-08T18:54:22.121Z,100349.24
2023-04-08T18:56:50.930Z,100352.51
2023-04-08T18:59:19.570Z,100348.50
2023-04-08T19:01:47.828Z,100350.07
2023-04-08T19:04:16.943Z,100343.16
2023-04-08T19:06:45.290Z,100343.50
2023-04-08T19:09:14.554Z,100343.05
2023-04-08T19:11:44.158Z,100345.78
2023-04-08T19:14:12.794Z,100339.91
2023-04-08T19:16:46.738Z,100342.13
2023-04-08T19:19:16.266Z,100339.80
2023-04-08T19:21:44.533Z,100335.58
2023-04-08T19:24:12.496Z,100334.27
2023-04-08T19:26:41.332Z,100328.15
2023-04-08T19:29:10.539Z,100334.47
2023-04-08T19:31:39.328Z,100334.10
2023-04-08T19:34:07.792Z,100332.10
2023-04-08T19:36:41.416Z,100332.02
2023-04-08T19:39:09.562Z,100328.99
2023-04-08T19:41:38.152Z,100330.55
2023-04-08T19:44:06.178Z,100330.59
2023-04-08T19:46:34.926Z,100330.98
2023-04-08T19:49:03.902Z,100327.06
2023-04-08T19:51:32.848Z,100327.59
2023-04-08T19:54:04.339Z,100327.86
2023-04-08T19:56:34.095Z,100326.13
2023-04-08T19:59:04.508Z,100323.16
2023-04-08T20:01:36.554Z,100322.78
2023-04-08T20:04:05.742Z,100322.52
2023-04-08T20:06:34.966Z,100322.89
2023-04-08T20:09:05.824Z,100317.80
2023-04-08T20:11:34.525Z,100319.13
2023-04-08T20:14:04.400Z,100320.95
2023-04-08T20:16:34.733Z,100319.02
2023-04-08T20:19:04.565Z,100323.64
2023-04-08T20:21:35.034Z,100319.84
2023-04-08T20:24:03.318Z,100327.39
2023-04-08T20:26:32.211Z,100324.06
2023-04-08T20:29:00.791Z,100329.02
2023-04-08T20:31:32.274Z,100328.70
2023-04-08T20:34:00.634Z,100323.38
2023-04-08T20:36:30.284Z,100320.84
2023-04-08T20:39:00.214Z,100318.76
2023-04-08T20:41:28.545Z,100320.72
2023-04-08T20:43:56.556Z,100319.92
2023-04-08T20:46:29.543Z,100326.92
2023-04-08T20:48:58.588Z,100320.42
2023-04-08T20:51:27.483Z,100320.71
2023-04-08T20:53:56.605Z,100320.61
2023-04-08T20:56:26.624Z,100320.63
2023-04-08T20:59:00.956Z,100321.56
2023-04-08T21:01:30.156Z,100317.78
2023-04-08T21:03:59.213Z,100322.94
2023-04-08T21:06:27.867Z,100326.04
2023-04-08T21:08:59.478Z,100318.96
2023-04-08T21:11:28.578Z,100319.06
2023-04-08T21:14:01.707Z,100320.98
2023-04-08T21:16:34.532Z,100322.10
2023-04-08T21:19:04.151Z,100321.05
2023-04-08T21:21:42.116Z,100322.92
2023-04-08T21:24:10.820Z,100325.60
2023-04-08T21:26:38.918Z,100324.36
2023-04-08T21:29:07.332Z,100322.59
2023-04-08T21:31:35.860Z,100326.05
2023-04-08T21:34:07.414Z,100324.03
2023-04-08T21:36:36.749Z,100320.81
2023-04-08T21:39:05.250Z,100317.73
2023-04-08T21:41:33.190Z,100318.88
2023-04-08T21:44:01.529Z,100321.20
2023-04-08T21:46:29.998Z,100315.71
2023-04-08T21:48:58.091Z,100313.04
2023-04-08T21:51:26.742Z,100315.64
2023-04-08T21:53:54.795Z,100316.80
2023-04-08T21:56:24.531Z,100314.43
2023-04-08T21:58:53.039Z,100321.24
2023-04-08T22:01:21.678Z,100320.06
2023-04-08T22:03:54.001Z,100315.20
2023-04-08T22:06:32.009Z,100315.90
2023-04-08T22:09:00.959Z,100322.34
2023-04-08T22:11:30.178Z,100320.34
2023-04-08T22:13:58.283Z,100317.61
2023-04-08T22:16:26.437Z,100322.77
2023-04-08T22:18:55.078Z,100320.48
2023-04-08T22:21:23.857Z,100318.20
2023-04-08T22:23:52.522Z,100322.42
2023-04-08T22:26:21.611Z,100324.73
2023-04-08T22:28:51.062Z,100321.31
2023-04-08T22:31:21.209Z,100322.98
2023-04-08T22:33:50.578Z,100321.70
2023-04-08T22:36:18.676Z,100321.86
2023-04-08T22:38:50.957Z,100322.39
2023-04-08T22:41:21.018Z,100318.45
2023-04-08T22:43:49.743Z,100320.81
2023-04-08T22:46:20.907Z,100320.23
2023-04-08T22:48:49.656Z,100314.20
2023-04-08T22:51:18.927Z,100321.05
2023-04-08T22:53:47.168Z,100318.69
2023-04-08T22:56:15.408Z,100322.45
2023-04-08T22:58:50.826Z,100320.25
2023-04-08T23:01:22.544Z,100318.34
2023-04-08T23:03:52.304Z,100314.73
2023-04-08T23:06:20.527Z,100310.84
2023-04-08T23:08:51.644Z,100306.96
2023-04-08T23:11:20.969Z,100306.01
2023-04-08T23:13:54.935Z,100307.05
2023-04-08T23:16:23.773Z,100304.63
2023-04-08T23:18:52.030Z,100305.19
2023-04-08T23:21:26.254Z,100304.79
2023-04-08T23:23:55.123Z,100303.57
2023-04-08T23:26:23.240Z,100304.17
2023-04-08T23:28:54.841Z,100307.66
2023-04-08T23:31:23.564Z,100301.56
2023-04-08T23:33:52.329Z,100297.64
2023-04-08T23:36:24.449Z,100298.37
2023-04-08T23:38:52.986Z,100297.87
2023-04-08T23:41:21.204Z,100299.63
2023-04-08T23:43:54.213Z,100298.33
2023-04-08T23:46:23.319Z,100301.15
2023-04-08T23:48:57.674Z,100301.45
2023-04-08T23:51:27.895Z,100304.48
2023-04-08T23:53:56.521Z,100304.60
2023-04-08T23:56:31.963Z,100300.00
2023-04-08T23:59:00.077Z,100299.08
